Terminal Aerodrome Forecast
Issued by NWS San Angelo, TX

Home | Current Version | Previous Version | Text Only | Print | Product List | Glossary On
Versions: 1 2 3 4 5 6 7 8 9 10 11 12 13 14 15
000
FTUS44 KSJT 281725
TAFSJT
TAF
KSJT 281725Z 2818/2918 23010KT P6SM SCT250
     FM290000 16011KT P6SM BKN250
     FM290900 19011KT P6SM FEW015 BKN250
     FM291200 25011KT P6SM SCT015 BKN250=

USA.gov is the U.S. government's official web portal to all federal, state and local government web resources and services.